JAL12 RJNS-RJNS
Flight info
| Callsign | JAL12 |
|---|---|
| Flight time | 0h 22m |
| Altitude | 36000 |
| Route | KANZA CHAUS Y155 TENRU Y88 KCC/N0500F350 Y295 GAKKI Y551 ENSYU |
| Aircraft | A359/H-SDE2E3GHIJ3J4J5LM1ORWXY/LB1D1 |
Departure
| Time | 2026-04-14 15:24 |
|---|---|
| Airport | Mount Fuji Shizuoka Airport (RJNS) |
Arrival
| Time | 2026-04-14 15:46 |
|---|---|
| Airport | Mount Fuji Shizuoka Airport (RJNS) |
| Time | Latitude | Longitude | Altitude | Speed | Heading |
|---|---|---|---|---|---|
| 2026-04-14 15:09 | 34.79602 | 138.18029 | 459 ft | 0 kts | 201° |
| 2026-04-14 15:15 | 34.79605 | 138.18031 | 458 ft | 3 kts | 201° |
| 2026-04-14 15:15 | 34.79630 | 138.18044 | 459 ft | 4 kts | 208° |
| 2026-04-14 15:15 | 34.79653 | 138.18060 | 457 ft | 4 kts | 215° |
| 2026-04-14 15:15 | 34.79675 | 138.18080 | 456 ft | 4 kts | 225° |
| 2026-04-14 15:16 | 34.79691 | 138.18105 | 455 ft | 4 kts | 246° |
| 2026-04-14 15:16 | 34.79695 | 138.18131 | 455 ft | 1 kts | 291° |
| 2026-04-14 15:16 | 34.79695 | 138.18132 | 454 ft | 0 kts | 292° |
| 2026-04-14 15:20 | 34.79704 | 138.18109 | 458 ft | 4 kts | 296° |
| 2026-04-14 15:20 | 34.79717 | 138.18068 | 459 ft | 6 kts | 292° |
| 2026-04-14 15:20 | 34.79735 | 138.18016 | 458 ft | 7 kts | 292° |
| 2026-04-14 15:20 | 34.79754 | 138.17956 | 461 ft | 8 kts | 291° |
| 2026-04-14 15:21 | 34.79776 | 138.17886 | 462 ft | 9 kts | 289° |
| 2026-04-14 15:21 | 34.79799 | 138.17810 | 463 ft | 10 kts | 290° |
| 2026-04-14 15:21 | 34.79828 | 138.17733 | 465 ft | 9 kts | 290° |
| 2026-04-14 15:21 | 34.79842 | 138.17691 | 465 ft | 0 kts | 297° |
| 2026-04-14 15:23 | 34.79843 | 138.17688 | 466 ft | 3 kts | 298° |
| 2026-04-14 15:23 | 34.79899 | 138.17647 | 465 ft | 15 kts | 358° |
| 2026-04-14 15:23 | 34.79994 | 138.17753 | 467 ft | 26 kts | 91° |
| 2026-04-14 15:23 | 34.79871 | 138.18121 | 458 ft | 88 kts | 114° |
| 2026-04-14 15:24 | 34.79522 | 138.19168 | 513 ft | 170 kts | 116° |
| 2026-04-14 15:24 | 34.79060 | 138.20533 | 1548 ft | 176 kts | 114° |
| 2026-04-14 15:24 | 34.78454 | 138.21962 | 2514 ft | 196 kts | 123° |
| 2026-04-14 15:24 | 34.77853 | 138.23448 | 3551 ft | 190 kts | 122° |
| 2026-04-14 15:25 | 34.77536 | 138.24927 | 4476 ft | 174 kts | 93° |
| 2026-04-14 15:25 | 34.77942 | 138.26327 | 4976 ft | 188 kts | 68° |
| 2026-04-14 15:25 | 34.78726 | 138.27752 | 5050 ft | 220 kts | 61° |
| 2026-04-14 15:25 | 34.79940 | 138.29107 | 5067 ft | 255 kts | 46° |
| 2026-04-14 15:26 | 34.81532 | 138.30204 | 5057 ft | 275 kts | 34° |
| 2026-04-14 15:26 | 34.83363 | 138.30936 | 5052 ft | 280 kts | 22° |
| 2026-04-14 15:26 | 34.85302 | 138.31147 | 5043 ft | 281 kts | 9° |
| 2026-04-14 15:26 | 34.87254 | 138.30875 | 5047 ft | 284 kts | 358° |
| 2026-04-14 15:27 | 34.89144 | 138.30162 | 5045 ft | 284 kts | 347° |
| 2026-04-14 15:27 | 34.90891 | 138.29035 | 5048 ft | 285 kts | 336° |
| 2026-04-14 15:27 | 34.92427 | 138.27535 | 5050 ft | 285 kts | 325° |
| 2026-04-14 15:27 | 34.93716 | 138.25686 | 5046 ft | 285 kts | 314° |
| 2026-04-14 15:28 | 34.94695 | 138.23621 | 5046 ft | 286 kts | 303° |
| 2026-04-14 15:28 | 34.95322 | 138.21327 | 5062 ft | 284 kts | 268° |
| 2026-04-14 15:28 | 34.95023 | 138.19058 | 5034 ft | 269 kts | 258° |
| 2026-04-14 15:28 | 34.94370 | 138.16846 | 5054 ft | 281 kts | 255° |
| 2026-04-14 15:29 | 34.93646 | 138.14632 | 5034 ft | 280 kts | 255° |
| 2026-04-14 15:29 | 34.92925 | 138.12437 | 5047 ft | 279 kts | 254° |
| 2026-04-14 15:29 | 34.92204 | 138.10239 | 5043 ft | 280 kts | 254° |
| 2026-04-14 15:29 | 34.91479 | 138.08029 | 5049 ft | 281 kts | 254° |
| 2026-04-14 15:30 | 34.90751 | 138.05816 | 5041 ft | 281 kts | 254° |
| 2026-04-14 15:30 | 34.90034 | 138.03640 | 5039 ft | 281 kts | 254° |
| 2026-04-14 15:30 | 34.89307 | 138.01431 | 5036 ft | 280 kts | 254° |
| 2026-04-14 15:30 | 34.88393 | 137.99322 | 5040 ft | 283 kts | 239° |
| 2026-04-14 15:31 | 34.87083 | 137.97529 | 5046 ft | 284 kts | 227° |
| 2026-04-14 15:31 | 34.85506 | 137.96103 | 5059 ft | 282 kts | 219° |
| 2026-04-14 15:31 | 34.84094 | 137.94517 | 5103 ft | 272 kts | 242° |
| 2026-04-14 15:31 | 34.83682 | 137.92377 | 5046 ft | 261 kts | 284° |
| 2026-04-14 15:32 | 34.84510 | 137.90464 | 5036 ft | 259 kts | 328° |
| 2026-04-14 15:32 | 34.86074 | 137.89372 | 5018 ft | 267 kts | 346° |
| 2026-04-14 15:32 | 34.87849 | 137.88737 | 5055 ft | 269 kts | 6° |
| 2026-04-14 15:32 | 34.89547 | 137.89321 | 5045 ft | 249 kts | 48° |
| 2026-04-14 15:33 | 34.90587 | 137.90943 | 5034 ft | 244 kts | 78° |
| 2026-04-14 15:33 | 34.90985 | 137.92960 | 5024 ft | 251 kts | 90° |
| 2026-04-14 15:33 | 34.91210 | 137.95101 | 5048 ft | 257 kts | 93° |
| 2026-04-14 15:33 | 34.90977 | 137.97207 | 5054 ft | 247 kts | 122° |
| 2026-04-14 15:34 | 34.90100 | 137.99009 | 5037 ft | 252 kts | 131° |
| 2026-04-14 15:34 | 34.88990 | 138.00681 | 5035 ft | 255 kts | 141° |
| 2026-04-14 15:34 | 34.87770 | 138.02264 | 5038 ft | 260 kts | 141° |
| 2026-04-14 15:34 | 34.86567 | 138.03830 | 4760 ft | 243 kts | 138° |
| 2026-04-14 15:35 | 34.85548 | 138.05341 | 4278 ft | 227 kts | 134° |
| 2026-04-14 15:35 | 34.84594 | 138.06899 | 3315 ft | 235 kts | 132° |
| 2026-04-14 15:35 | 34.83606 | 138.08459 | 2705 ft | 227 kts | 136° |
| 2026-04-14 15:35 | 34.82659 | 138.10076 | 2232 ft | 246 kts | 131° |
| 2026-04-14 15:36 | 34.81757 | 138.11913 | 2026 ft | 258 kts | 113° |
| 2026-04-14 15:36 | 34.81171 | 138.13966 | 1643 ft | 256 kts | 116° |
| 2026-04-14 15:36 | 34.80536 | 138.15972 | 950 ft | 250 kts | 115° |
| 2026-04-14 15:36 | 34.79933 | 138.17918 | 520 ft | 247 kts | 118° |
| 2026-04-14 15:37 | 34.79313 | 138.19741 | 604 ft | 243 kts | 114° |
| 2026-04-14 15:37 | 34.78602 | 138.21638 | 1969 ft | 246 kts | 121° |
| 2026-04-14 15:37 | 34.77620 | 138.23347 | 3471 ft | 247 kts | 132° |
| 2026-04-14 15:37 | 34.77097 | 138.25298 | 4629 ft | 246 kts | 98° |
| 2026-04-14 15:38 | 34.77366 | 138.27270 | 5752 ft | 233 kts | 70° |
| 2026-04-14 15:38 | 34.78720 | 138.28177 | 5756 ft | 243 kts | 353° |
| 2026-04-14 15:38 | 34.80273 | 138.27428 | 5945 ft | 256 kts | 316° |
| 2026-04-14 15:38 | 34.81624 | 138.25964 | 6221 ft | 261 kts | 327° |
| 2026-04-14 15:39 | 34.82916 | 138.24449 | 6112 ft | 255 kts | 314° |
| 2026-04-14 15:39 | 34.83605 | 138.23275 | 6071 ft | 259 kts | 309° |
| 2026-04-14 15:39 | 34.84714 | 138.20931 | 6039 ft | 224 kts | 303° |
| 2026-04-14 15:39 | 34.85400 | 138.19262 | 6066 ft | 218 kts | 303° |
| 2026-04-14 15:40 | 34.86062 | 138.17606 | 6050 ft | 217 kts | 303° |
| 2026-04-14 15:40 | 34.86723 | 138.15948 | 6047 ft | 218 kts | 302° |
| 2026-04-14 15:40 | 34.87378 | 138.14307 | 6045 ft | 209 kts | 303° |
| 2026-04-14 15:40 | 34.87778 | 138.13273 | 6042 ft | 200 kts | 302° |
| 2026-04-14 15:41 | 34.88535 | 138.11256 | 6045 ft | 195 kts | 301° |
| 2026-04-14 15:41 | 34.88907 | 138.10246 | 6042 ft | 195 kts | 303° |
| 2026-04-14 15:41 | 34.89559 | 138.08186 | 6027 ft | 203 kts | 289° |
| 2026-04-14 15:41 | 34.89540 | 138.06469 | 5850 ft | 201 kts | 264° |
| 2026-04-14 15:42 | 34.88956 | 138.04982 | 5402 ft | 192 kts | 237° |
| 2026-04-14 15:42 | 34.88309 | 138.04268 | 5179 ft | 189 kts | 222° |
| 2026-04-14 15:42 | 34.87168 | 138.03476 | 5051 ft | 189 kts | 212° |
| 2026-04-14 15:42 | 34.85883 | 138.03129 | 5050 ft | 193 kts | 186° |
| 2026-04-14 15:43 | 34.84211 | 138.03763 | 4864 ft | 186 kts | 152° |
| 2026-04-14 15:43 | 34.83584 | 138.04441 | 4651 ft | 178 kts | 140° |
| 2026-04-14 15:43 | 34.82806 | 138.05562 | 4257 ft | 174 kts | 132° |
| 2026-04-14 15:43 | 34.82148 | 138.07327 | 3626 ft | 173 kts | 105° |
| 2026-04-14 15:44 | 34.82112 | 138.08775 | 3079 ft | 171 kts | 90° |
| 2026-04-14 15:44 | 34.82141 | 138.09762 | 2690 ft | 172 kts | 102° |
| 2026-04-14 15:44 | 34.81987 | 138.11180 | 2216 ft | 171 kts | 111° |
| 2026-04-14 15:44 | 34.81641 | 138.12545 | 1964 ft | 170 kts | 116° |
| 2026-04-14 15:45 | 34.81198 | 138.13906 | 1529 ft | 174 kts | 120° |
| 2026-04-14 15:45 | 34.80761 | 138.15258 | 1111 ft | 169 kts | 118° |
| 2026-04-14 15:45 | 34.80354 | 138.16604 | 734 ft | 169 kts | 116° |
| 2026-04-14 15:45 | 34.79920 | 138.17930 | 471 ft | 169 kts | 112° |
| 2026-04-14 15:46 | 34.79528 | 138.19121 | 431 ft | 116 kts | 112° |
| 2026-04-14 15:46 | 34.79341 | 138.19699 | 421 ft | 31 kts | 113° |
| 2026-04-14 15:46 | 34.79257 | 138.19940 | 417 ft | 32 kts | 109° |
| 2026-04-14 15:46 | 34.79170 | 138.20167 | 419 ft | 13 kts | 156° |
| 2026-04-14 15:47 | 34.79090 | 138.20149 | 421 ft | 15 kts | 205° |
| 2026-04-14 15:47 | 34.79051 | 138.20067 | 420 ft | 8 kts | 281° |
| 2026-04-14 15:47 | 34.79119 | 138.19843 | 420 ft | 56 kts | 291° |
| 2026-04-14 15:47 | 34.79269 | 138.19402 | 422 ft | 57 kts | 292° |
| 2026-04-14 15:48 | 34.79415 | 138.18955 | 434 ft | 56 kts | 292° |
| 2026-04-14 15:48 | 34.79565 | 138.18503 | 452 ft | 57 kts | 292° |
| 2026-04-14 15:48 | 34.79656 | 138.18235 | 456 ft | 17 kts | 294° |
| 2026-04-14 15:48 | 34.79703 | 138.18106 | 458 ft | 16 kts | 287° |
| 2026-04-14 15:49 | 34.79690 | 138.18061 | 458 ft | 2 kts | 192° |
| 2026-04-14 15:49 | 34.79661 | 138.18053 | 459 ft | 6 kts | 197° |
| 2026-04-14 15:49 | 34.79618 | 138.18035 | 459 ft | 5 kts | 199° |
| 2026-04-14 15:49 | 34.79613 | 138.18033 | 459 ft | 0 kts | 199° |